NORTHEAST SUFFOLK  -  Rip Current Statement Rip Current Statement        NORTHERN NASSAU  -  Rip Current Statement Rip Current Statement        NORTHERN QUEENS  -  Rip Current Statement Rip Current Statement     Air Quality Alert Air Quality Alert        NORTHWEST SUFFOLK  -  Rip Current Statement Rip Current Statement        SOUTHEAST SUFFOLK  -  Rip Current Statement Rip Current Statement        SOUTHERN NASSAU  -  Rip Current Statement Rip Current Statement        SOUTHERN QUEENS  -  Rip Current Statement Rip Current Statement     Air Quality Alert Air Quality Alert        SOUTHWEST SUFFOLK  -  Rip Current Statement Rip Current Statement      

Active alerts

Northern Queens
  Details for Northern Queens Rip Current Statement  +1 additional alert
Southern Queens
  Details for Southern Queens Rip Current Statement  +1 additional alert
Northern Nassau
  Details for Northern Nassau Rip Current Statement
Southern Nassau
  Details for Southern Nassau Rip Current Statement
Northwest Suffolk
  Details for Northwest Suffolk Rip Current Statement
Southwest Suffolk
  Details for Southwest Suffolk Rip Current Statement
Northeast Suffolk
  Details for Northeast Suffolk Rip Current Statement
Southeast Suffolk
  Details for Southeast Suffolk Rip Current Statement


WXM80 ListenWXM80 Stop

You find our weather info also at:

UK Metoffice

WeatherCloud

Weather Underground

Northeastern Weather Network

AWEKAS

Citizen Weather Observer Program (CWOP)

HAMweather, WeatherForYou, PWS Weather


Weather Underground History page Text

Daily Summary for February 26, 2017 Units:  Both    English   Metric
« Previous Day
Next Day »
Daily Weekly Monthly Yearly Custom
  High: Low: Average:
Temperature: 43.4 °F /  6.3 °C 33.4 °F /  0.8 °C 39.3 °F /  4.1 °C
Dew Point: 40.4 °F /  4.7 °C 21.6 °F /  -5.8 °C 26.1 °F /  -3.3 °C
Humidity: 90 % 44 % 60 %
Wind Speed: 13.2 mph /  21.2 km/h - 5.7 mph /  9.2 km/h
Wind Gust: 23.0 mph /  37 km/h - -
Wind:- - WNW
Pressure: 30.24 in /  1023.9 hPa 29.59 in /  1001.9 hPa -
Precipitation: 0.00 in /  0 mm    
Historical Graphs
 
 
Tabular Data for February 26, 2017
Time Temperature Dew Point Pressure Wind Wind Speed Wind Gust Humidity Rainfall Rate (Hourly)
00:03 43.4 °F /  6.3 °C 40.4 °F /  4.7 °C 29.59 in /  1001.9 hPa NW 4.0 mph /  6.4 km/h 8.1 mph /  13 km/h 89 % 0.00 in /  0 mm
00:08 43.2 °F /  6.2 °C 39.9 °F /  4.4 °C 29.61 in /  1002.6 hPa NW 5.2 mph /  8.4 km/h 8.1 mph /  13 km/h 88 % 0.00 in /  0 mm
00:13 43.1 °F /  6.2 °C 39.8 °F /  4.3 °C 29.63 in /  1003.3 hPa WNW 3.0 mph /  4.8 km/h 7.0 mph /  11.3 km/h 88 % 0.00 in /  0 mm
00:18 43.1 °F /  6.2 °C 40.1 °F /  4.5 °C 29.63 in /  1003.3 hPa WNW 3.0 mph /  4.8 km/h 8.0 mph /  12.9 km/h 89 % 0.00 in /  0 mm
00:23 43.0 °F /  6.1 °C 40.0 °F /  4.4 °C 29.63 in /  1003.3 hPa WNW 3.0 mph /  4.8 km/h 10.0 mph /  16.1 km/h 89 % 0.00 in /  0 mm
00:28 43.0 °F /  6.1 °C 40.0 °F /  4.4 °C 29.63 in /  1003.3 hPa NW 4.1 mph /  6.6 km/h 10.0 mph /  16.1 km/h 89 % 0.00 in /  0 mm
00:33 42.9 °F /  6.1 °C 39.9 °F /  4.4 °C 29.62 in /  1002.9 hPa NW 3.0 mph /  4.8 km/h 15.0 mph /  24.1 km/h 89 % 0.00 in /  0 mm
00:38 42.8 °F /  6 °C 39.8 °F /  4.3 °C 29.62 in /  1002.9 hPa NW 5.0 mph /  8 km/h 12.0 mph /  19.3 km/h 89 % 0.00 in /  0 mm
00:43 42.8 °F /  6 °C 39.8 °F /  4.3 °C 29.62 in /  1002.9 hPa WNW 1.0 mph /  1.6 km/h 8.0 mph /  12.9 km/h 89 % 0.00 in /  0 mm
00:48 42.7 °F /  5.9 °C 39.7 °F /  4.3 °C 29.62 in /  1002.9 hPa NW 7.1 mph /  11.4 km/h 12.7 mph /  20.4 km/h 89 % 0.00 in /  0 mm
00:53 42.6 °F /  5.9 °C 39.9 °F /  4.4 °C 29.61 in /  1002.6 hPa NW 6.0 mph /  9.7 km/h 12.0 mph /  19.3 km/h 90 % 0.00 in /  0 mm
00:58 42.5 °F /  5.8 °C 39.5 °F /  4.2 °C 29.63 in /  1003.3 hPa SSW 4.2 mph /  6.8 km/h 9.2 mph /  14.8 km/h 89 % 0.00 in /  0 mm
01:03 42.5 °F /  5.8 °C 39.5 °F /  4.2 °C 29.62 in /  1002.9 hPa WSW 2.7 mph /  4.3 km/h 8.1 mph /  13 km/h 89 % 0.00 in /  0 mm
01:08 42.4 °F /  5.8 °C 39.4 °F /  4.1 °C 29.65 in /  1003.9 hPa WNW 6.2 mph /  10 km/h 11.5 mph /  18.5 km/h 89 % 0.00 in /  0 mm
01:13 42.5 °F /  5.8 °C 39.2 °F /  4 °C 29.65 in /  1003.9 hPa NW 6.0 mph /  9.7 km/h 10.4 mph /  16.7 km/h 88 % 0.00 in /  0 mm
01:18 42.5 °F /  5.8 °C 38.6 °F /  3.7 °C 29.65 in /  1003.9 hPa NW 8.2 mph /  13.2 km/h 16.1 mph /  25.9 km/h 86 % 0.00 in /  0 mm
01:23 42.5 °F /  5.8 °C 38.0 °F /  3.3 °C 29.66 in /  1004.3 hPa WNW 5.5 mph /  8.9 km/h 8.1 mph /  13 km/h 84 % 0.00 in /  0 mm
01:28 42.5 °F /  5.8 °C 37.7 °F /  3.2 °C 29.66 in /  1004.3 hPa SW 6.5 mph /  10.5 km/h 10.4 mph /  16.7 km/h 83 % 0.00 in /  0 mm
01:33 42.5 °F /  5.8 °C 37.1 °F /  2.8 °C 29.66 in /  1004.3 hPa NW 9.6 mph /  15.4 km/h 12.7 mph /  20.4 km/h 81 % 0.00 in /  0 mm
01:38 42.4 °F /  5.8 °C 37.0 °F /  2.8 °C 29.66 in /  1004.3 hPa West 4.5 mph /  7.2 km/h 10.4 mph /  16.7 km/h 81 % 0.00 in /  0 mm
01:43 42.4 °F /  5.8 °C 36.7 °F /  2.6 °C 29.66 in /  1004.3 hPa NW 7.7 mph /  12.4 km/h 13.8 mph /  22.2 km/h 80 % 0.00 in /  0 mm
01:48 42.3 °F /  5.7 °C 36.3 °F /  2.4 °C 29.66 in /  1004.3 hPa North 5.4 mph /  8.7 km/h 9.2 mph /  14.8 km/h 79 % 0.00 in /  0 mm
01:53 42.2 °F /  5.7 °C 35.8 °F /  2.1 °C 29.67 in /  1004.6 hPa West 6.5 mph /  10.5 km/h 9.2 mph /  14.8 km/h 78 % 0.00 in /  0 mm
01:59 42.0 °F /  5.6 °C 35.3 °F /  1.8 °C 29.67 in /  1004.6 hPa NW 6.0 mph /  9.7 km/h 9.2 mph /  14.8 km/h 77 % 0.00 in /  0 mm
02:04 41.9 °F /  5.5 °C 34.9 °F /  1.6 °C 29.68 in /  1005 hPa WNW 5.6 mph /  9 km/h 12.7 mph /  20.4 km/h 76 % 0.00 in /  0 mm
02:09 41.7 °F /  5.4 °C 34.0 °F /  1.1 °C 29.68 in /  1005 hPa NW 4.9 mph /  7.9 km/h 8.1 mph /  13 km/h 74 % 0.00 in /  0 mm
02:14 41.5 °F /  5.3 °C 33.8 °F /  1 °C 29.68 in /  1005 hPa West 6.1 mph /  9.8 km/h 12.7 mph /  20.4 km/h 74 % 0.00 in /  0 mm
02:19 41.4 °F /  5.2 °C 33.7 °F /  0.9 °C 29.68 in /  1005 hPa West 6.1 mph /  9.8 km/h 18.4 mph /  29.6 km/h 74 % 0.00 in /  0 mm
02:24 41.3 °F /  5.2 °C 33.6 °F /  0.9 °C 29.69 in /  1005.3 hPa West 7.6 mph /  12.2 km/h 15.0 mph /  24.1 km/h 74 % 0.00 in /  0 mm
02:29 41.2 °F /  5.1 °C 33.5 °F /  0.8 °C 29.69 in /  1005.3 hPa WNW 7.9 mph /  12.7 km/h 14.0 mph /  22.5 km/h 74 % 0.00 in /  0 mm
02:34 41.1 °F /  5.1 °C 33.1 °F /  0.6 °C 29.69 in /  1005.3 hPa NW 6.4 mph /  10.3 km/h 13.8 mph /  22.2 km/h 73 % 0.00 in /  0 mm
02:39 41.0 °F /  5 °C 32.7 °F /  0.4 °C 29.69 in /  1005.3 hPa WNW 10.4 mph /  16.7 km/h 14.0 mph /  22.5 km/h 72 % 0.00 in /  0 mm
02:44 40.9 °F /  4.9 °C 32.2 °F /  0.1 °C 29.70 in /  1005.6 hPa NW 4.1 mph /  6.6 km/h 9.2 mph /  14.8 km/h 71 % 0.00 in /  0 mm
02:49 40.8 °F /  4.9 °C 31.8 °F /  -0.1 °C 29.70 in /  1005.6 hPa WNW 8.3 mph /  13.4 km/h 18.4 mph /  29.6 km/h 70 % 0.00 in /  0 mm
02:54 40.8 °F /  4.9 °C 31.8 °F /  -0.1 °C 29.70 in /  1005.6 hPa WNW 4.3 mph /  6.9 km/h 11.5 mph /  18.5 km/h 70 % 0.00 in /  0 mm
02:59 40.7 °F /  4.8 °C 32.0 °F /  0 °C 29.70 in /  1005.6 hPa WNW 6.7 mph /  10.8 km/h 8.1 mph /  13 km/h 71 % 0.00 in /  0 mm
03:04 40.7 °F /  4.8 °C 32.0 °F /  0 °C 29.70 in /  1005.6 hPa West 10.7 mph /  17.2 km/h 14.0 mph /  22.5 km/h 71 % 0.00 in /  0 mm
03:09 40.7 °F /  4.8 °C 32.0 °F /  0 °C 29.70 in /  1005.6 hPa NW 6.4 mph /  10.3 km/h 11.5 mph /  18.5 km/h 71 % 0.00 in /  0 mm
03:14 40.7 °F /  4.8 °C 31.7 °F /  -0.2 °C 29.71 in /  1006 hPa WNW 9.1 mph /  14.6 km/h 19.6 mph /  31.5 km/h 70 % 0.00 in /  0 mm
03:19 40.7 °F /  4.8 °C 32.0 °F /  0 °C 29.71 in /  1006 hPa NW 7.5 mph /  12.1 km/h 12.7 mph /  20.4 km/h 71 % 0.00 in /  0 mm
03:24 40.6 °F /  4.8 °C 31.6 °F /  -0.2 °C 29.71 in /  1006 hPa NNW 6.3 mph /  10.1 km/h 10.4 mph /  16.7 km/h 70 % 0.00 in /  0 mm
03:30 40.6 °F /  4.8 °C 31.2 °F /  -0.4 °C 29.71 in /  1006 hPa WNW 10.5 mph /  16.9 km/h 16.1 mph /  25.9 km/h 69 % 0.00 in /  0 mm
03:35 40.5 °F /  4.7 °C 31.1 °F /  -0.5 °C 29.72 in /  1006.3 hPa WSW 5.9 mph /  9.5 km/h 11.5 mph /  18.5 km/h 69 % 0.00 in /  0 mm
03:40 40.5 °F /  4.7 °C 31.1 °F /  -0.5 °C 29.72 in /  1006.3 hPa West 9.1 mph /  14.6 km/h 13.0 mph /  20.9 km/h 69 % 0.00 in /  0 mm
03:45 40.5 °F /  4.7 °C 31.1 °F /  -0.5 °C 29.72 in /  1006.3 hPa WSW 5.2 mph /  8.4 km/h 11.5 mph /  18.5 km/h 69 % 0.00 in /  0 mm
03:50 40.4 °F /  4.7 °C 31.0 °F /  -0.6 °C 29.72 in /  1006.3 hPa NW 7.9 mph /  12.7 km/h 11.5 mph /  18.5 km/h 69 % 0.00 in /  0 mm
03:55 40.3 °F /  4.6 °C 30.9 °F /  -0.6 °C 29.73 in /  1006.7 hPa WNW 7.7 mph /  12.4 km/h 13.0 mph /  20.9 km/h 69 % 0.00 in /  0 mm
04:00 40.2 °F /  4.6 °C 30.1 °F /  -1.1 °C 29.73 in /  1006.7 hPa NW 10.2 mph /  16.4 km/h 19.6 mph /  31.5 km/h 67 % 0.00 in /  0 mm
04:05 40.2 °F /  4.6 °C 29.7 °F /  -1.3 °C 29.73 in /  1006.7 hPa NW 9.9 mph /  15.9 km/h 17.0 mph /  27.4 km/h 66 % 0.00 in /  0 mm
04:10 40.0 °F /  4.4 °C 29.9 °F /  -1.2 °C 29.73 in /  1006.7 hPa NW 4.2 mph /  6.8 km/h 15.0 mph /  24.1 km/h 67 % 0.00 in /  0 mm
04:15 39.8 °F /  4.3 °C 29.7 °F /  -1.3 °C 29.73 in /  1006.7 hPa North 6.5 mph /  10.5 km/h 11.0 mph /  17.7 km/h 67 % 0.00 in /  0 mm
04:20 39.6 °F /  4.2 °C 29.5 °F /  -1.4 °C 29.74 in /  1007 hPa NNW 9.5 mph /  15.3 km/h 17.3 mph /  27.8 km/h 67 % 0.00 in /  0 mm
04:25 39.5 °F /  4.2 °C 29.1 °F /  -1.6 °C 29.74 in /  1007 hPa WNW 8.2 mph /  13.2 km/h 15.0 mph /  24.1 km/h 66 % 0.00 in /  0 mm
04:30 39.4 °F /  4.1 °C 29.3 °F /  -1.5 °C 29.75 in /  1007.3 hPa NW 4.3 mph /  6.9 km/h 11.5 mph /  18.5 km/h 67 % 0.00 in /  0 mm
04:35 39.3 °F /  4.1 °C 29.3 °F /  -1.5 °C 29.75 in /  1007.3 hPa NW 8.2 mph /  13.2 km/h 13.8 mph /  22.2 km/h 67 % 0.00 in /  0 mm
04:40 39.1 °F /  3.9 °C 28.7 °F /  -1.8 °C 29.75 in /  1007.3 hPa NNW 5.5 mph /  8.9 km/h 11.5 mph /  18.5 km/h 66 % 0.00 in /  0 mm
04:45 39.0 °F /  3.9 °C 27.8 °F /  -2.3 °C 29.75 in /  1007.3 hPa WNW 8.3 mph /  13.4 km/h 16.1 mph /  25.9 km/h 64 % 0.00 in /  0 mm
04:50 38.9 °F /  3.8 °C 27.0 °F /  -2.8 °C 29.76 in /  1007.7 hPa NNW 10.9 mph /  17.5 km/h 16.1 mph /  25.9 km/h 62 % 0.00 in /  0 mm
04:55 38.8 °F /  3.8 °C 26.1 °F /  -3.3 °C 29.76 in /  1007.7 hPa NNW 13.0 mph /  20.9 km/h 20.7 mph /  33.3 km/h 60 % 0.00 in /  0 mm
05:00 38.7 °F /  3.7 °C 26.0 °F /  -3.3 °C 29.77 in /  1008 hPa WNW 8.9 mph /  14.3 km/h 17.3 mph /  27.8 km/h 60 % 0.00 in /  0 mm
05:05 38.6 °F /  3.7 °C 25.9 °F /  -3.4 °C 29.77 in /  1008 hPa WNW 10.0 mph /  16.1 km/h 18.4 mph /  29.6 km/h 60 % 0.00 in /  0 mm
05:10 38.5 °F /  3.6 °C 26.2 °F /  -3.2 °C 29.78 in /  1008.4 hPa SSW 6.4 mph /  10.3 km/h 11.5 mph /  18.5 km/h 61 % 0.00 in /  0 mm
05:15 38.4 °F /  3.6 °C 25.7 °F /  -3.5 °C 29.78 in /  1008.4 hPa West 7.4 mph /  11.9 km/h 13.8 mph /  22.2 km/h 60 % 0.00 in /  0 mm
05:21 38.3 °F /  3.5 °C 25.2 °F /  -3.8 °C 29.78 in /  1008.4 hPa NW 12.9 mph /  20.8 km/h 19.6 mph /  31.5 km/h 59 % 0.00 in /  0 mm
05:26 38.2 °F /  3.4 °C 24.3 °F /  -4.3 °C 29.78 in /  1008.4 hPa NW 13.2 mph /  21.2 km/h 23.0 mph /  37 km/h 57 % 0.00 in /  0 mm
05:31 38.1 °F /  3.4 °C 24.2 °F /  -4.3 °C 29.78 in /  1008.4 hPa WNW 9.1 mph /  14.6 km/h 15.0 mph /  24.1 km/h 57 % 0.00 in /  0 mm
05:36 38.0 °F /  3.3 °C 24.9 °F /  -3.9 °C 29.79 in /  1008.7 hPa West 8.4 mph /  13.5 km/h 13.0 mph /  20.9 km/h 59 % 0.00 in /  0 mm
05:41 37.9 °F /  3.3 °C 24.0 °F /  -4.4 °C 29.79 in /  1008.7 hPa WNW 7.8 mph /  12.6 km/h 16.1 mph /  25.9 km/h 57 % 0.00 in /  0 mm
05:46 37.9 °F /  3.3 °C 24.8 °F /  -4 °C 29.79 in /  1008.7 hPa NW 7.1 mph /  11.4 km/h 11.5 mph /  18.5 km/h 59 % 0.00 in /  0 mm
05:51 37.8 °F /  3.2 °C 25.5 °F /  -3.6 °C 29.80 in /  1009 hPa WNW 6.9 mph /  11.1 km/h 11.5 mph /  18.5 km/h 61 % 0.00 in /  0 mm
05:56 37.7 °F /  3.2 °C 25.1 °F /  -3.8 °C 29.80 in /  1009 hPa West 5.3 mph /  8.5 km/h 19.6 mph /  31.5 km/h 60 % 0.00 in /  0 mm
06:01 37.6 °F /  3.1 °C 25.0 °F /  -3.9 °C 29.80 in /  1009 hPa NNW 4.0 mph /  6.4 km/h 10.4 mph /  16.7 km/h 60 % 0.00 in /  0 mm
06:06 37.5 °F /  3.1 °C 25.3 °F /  -3.7 °C 29.81 in /  1009.4 hPa WNW 2.0 mph /  3.2 km/h 2.3 mph /  3.7 km/h 61 % 0.00 in /  0 mm
06:11 37.4 °F /  3 °C 24.8 °F /  -4 °C 29.81 in /  1009.4 hPa NW 6.3 mph /  10.1 km/h 11.5 mph /  18.5 km/h 60 % 0.00 in /  0 mm
06:16 37.3 °F /  2.9 °C 24.7 °F /  -4.1 °C 29.82 in /  1009.7 hPa WNW 6.3 mph /  10.1 km/h 15.0 mph /  24.1 km/h 60 % 0.00 in /  0 mm
06:21 37.3 °F /  2.9 °C 25.1 °F /  -3.8 °C 29.82 in /  1009.7 hPa North 4.4 mph /  7.1 km/h 9.2 mph /  14.8 km/h 61 % 0.00 in /  0 mm
06:26 37.3 °F /  2.9 °C 24.7 °F /  -4.1 °C 29.82 in /  1009.7 hPa NW 8.0 mph /  12.9 km/h 11.5 mph /  18.5 km/h 60 % 0.00 in /  0 mm
06:31 37.3 °F /  2.9 °C 25.1 °F /  -3.8 °C 29.82 in /  1009.7 hPa NW 6.0 mph /  9.7 km/h 10.4 mph /  16.7 km/h 61 % 0.00 in /  0 mm
06:36 37.3 °F /  2.9 °C 25.5 °F /  -3.6 °C 29.82 in /  1009.7 hPa WNW 5.5 mph /  8.9 km/h 11.5 mph /  18.5 km/h 62 % 0.00 in /  0 mm
06:41 37.3 °F /  2.9 °C 25.5 °F /  -3.6 °C 29.83 in /  1010 hPa West 4.2 mph /  6.8 km/h 9.0 mph /  14.5 km/h 62 % 0.00 in /  0 mm
06:46 37.4 °F /  3 °C 25.6 °F /  -3.6 °C 29.83 in /  1010 hPa WNW 5.3 mph /  8.5 km/h 9.2 mph /  14.8 km/h 62 % 0.00 in /  0 mm
06:51 37.5 °F /  3.1 °C 25.3 °F /  -3.7 °C 29.83 in /  1010 hPa NW 3.1 mph /  5 km/h 15.0 mph /  24.1 km/h 61 % 0.00 in /  0 mm
06:56 37.7 °F /  3.2 °C 25.5 °F /  -3.6 °C 29.84 in /  1010.4 hPa NNW 5.0 mph /  8 km/h 10.4 mph /  16.7 km/h 61 % 0.00 in /  0 mm
07:01 37.9 °F /  3.3 °C 25.6 °F /  -3.6 °C 29.84 in /  1010.4 hPa NW 5.0 mph /  8 km/h 9.2 mph /  14.8 km/h 61 % 0.00 in /  0 mm
07:06 38.1 °F /  3.4 °C 25.8 °F /  -3.4 °C 29.84 in /  1010.4 hPa WNW 4.4 mph /  7.1 km/h 10.4 mph /  16.7 km/h 61 % 0.00 in /  0 mm
07:11 38.1 °F /  3.4 °C 25.8 °F /  -3.4 °C 29.85 in /  1010.7 hPa WNW 4.9 mph /  7.9 km/h 11.5 mph /  18.5 km/h 61 % 0.00 in /  0 mm
07:16 38.2 °F /  3.4 °C 26.3 °F /  -3.2 °C 29.85 in /  1010.7 hPa NW 7.8 mph /  12.6 km/h 11.0 mph /  17.7 km/h 62 % 0.00 in /  0 mm
07:21 38.2 °F /  3.4 °C 26.3 °F /  -3.2 °C 29.85 in /  1010.7 hPa WSW 3.8 mph /  6.1 km/h 9.2 mph /  14.8 km/h 62 % 0.00 in /  0 mm
07:27 38.2 °F /  3.4 °C 26.7 °F /  -2.9 °C 29.86 in /  1011.1 hPa NW 4.4 mph /  7.1 km/h 10.0 mph /  16.1 km/h 63 % 0.00 in /  0 mm
07:32 38.2 °F /  3.4 °C 26.7 °F /  -2.9 °C 29.86 in /  1011.1 hPa NW 8.4 mph /  13.5 km/h 17.0 mph /  27.4 km/h 63 % 0.00 in /  0 mm
07:37 38.2 °F /  3.4 °C 26.3 °F /  -3.2 °C 29.86 in /  1011.1 hPa NW 7.2 mph /  11.6 km/h 12.7 mph /  20.4 km/h 62 % 0.00 in /  0 mm
07:42 38.2 °F /  3.4 °C 25.5 °F /  -3.6 °C 29.87 in /  1011.4 hPa NW 8.3 mph /  13.4 km/h 18.4 mph /  29.6 km/h 60 % 0.00 in /  0 mm
07:47 38.2 °F /  3.4 °C 25.9 °F /  -3.4 °C 29.87 in /  1011.4 hPa WNW 10.0 mph /  16.1 km/h 11.5 mph /  18.5 km/h 61 % 0.00 in /  0 mm
07:52 38.2 °F /  3.4 °C 25.9 °F /  -3.4 °C 29.87 in /  1011.4 hPa NW 7.8 mph /  12.6 km/h 12.7 mph /  20.4 km/h 61 % 0.00 in /  0 mm
07:57 38.2 °F /  3.4 °C 25.9 °F /  -3.4 °C 29.88 in /  1011.7 hPa NW 7.4 mph /  11.9 km/h 12.7 mph /  20.4 km/h 61 % 0.00 in /  0 mm
08:02 38.2 °F /  3.4 °C 25.9 °F /  -3.4 °C 29.88 in /  1011.7 hPa NW 7.8 mph /  12.6 km/h 14.0 mph /  22.5 km/h 61 % 0.00 in /  0 mm
08:07 38.1 °F /  3.4 °C 25.8 °F /  -3.4 °C 29.89 in /  1012.1 hPa NW 9.8 mph /  15.8 km/h 12.7 mph /  20.4 km/h 61 % 0.00 in /  0 mm
08:12 38.1 °F /  3.4 °C 25.4 °F /  -3.7 °C 29.89 in /  1012.1 hPa NNW 7.4 mph /  11.9 km/h 15.0 mph /  24.1 km/h 60 % 0.00 in /  0 mm
08:17 38.0 °F /  3.3 °C 25.7 °F /  -3.5 °C 29.89 in /  1012.1 hPa NNW 6.8 mph /  10.9 km/h 19.6 mph /  31.5 km/h 61 % 0.00 in /  0 mm
08:22 38.0 °F /  3.3 °C 25.7 °F /  -3.5 °C 29.89 in /  1012.1 hPa WNW 8.1 mph /  13 km/h 12.7 mph /  20.4 km/h 61 % 0.00 in /  0 mm
08:27 38.0 °F /  3.3 °C 25.3 °F /  -3.7 °C 29.89 in /  1012.1 hPa NNW 11.3 mph /  18.2 km/h 22.0 mph /  35.4 km/h 60 % 0.00 in /  0 mm
08:32 38.1 °F /  3.4 °C 25.0 °F /  -3.9 °C 29.89 in /  1012.1 hPa WNW 7.9 mph /  12.7 km/h 20.7 mph /  33.3 km/h 59 % 0.00 in /  0 mm
08:37 38.1 °F /  3.4 °C 25.4 °F /  -3.7 °C 29.90 in /  1012.4 hPa WNW 5.6 mph /  9 km/h 18.4 mph /  29.6 km/h 60 % 0.00 in /  0 mm
08:42 38.2 °F /  3.4 °C 25.1 °F /  -3.8 °C 29.89 in /  1012.1 hPa WNW 6.6 mph /  10.6 km/h 14.0 mph /  22.5 km/h 59 % 0.00 in /  0 mm
08:47 38.2 °F /  3.4 °C 25.5 °F /  -3.6 °C 29.90 in /  1012.4 hPa NW 7.3 mph /  11.7 km/h 11.5 mph /  18.5 km/h 60 % 0.00 in /  0 mm
08:52 38.3 °F /  3.5 °C 25.2 °F /  -3.8 °C 29.90 in /  1012.4 hPa NW 5.2 mph /  8.4 km/h 9.2 mph /  14.8 km/h 59 % 0.00 in /  0 mm
08:57 38.3 °F /  3.5 °C 25.6 °F /  -3.6 °C 29.91 in /  1012.8 hPa WSW 7.0 mph /  11.3 km/h 16.1 mph /  25.9 km/h 60 % 0.00 in /  0 mm
09:02 38.4 °F /  3.6 °C 25.7 °F /  -3.5 °C 29.91 in /  1012.8 hPa NW 6.9 mph /  11.1 km/h 15.0 mph /  24.1 km/h 60 % 0.00 in /  0 mm
09:07 38.5 °F /  3.6 °C 26.6 °F /  -3 °C 29.91 in /  1012.8 hPa West 8.6 mph /  13.8 km/h 12.0 mph /  19.3 km/h 62 % 0.00 in /  0 mm
09:12 38.6 °F /  3.7 °C 25.5 °F /  -3.6 °C 29.91 in /  1012.8 hPa WNW 5.6 mph /  9 km/h 9.2 mph /  14.8 km/h 59 % 0.00 in /  0 mm
09:18 38.6 °F /  3.7 °C 25.5 °F /  -3.6 °C 29.92 in /  1013.1 hPa NW 10.0 mph /  16.1 km/h 16.1 mph /  25.9 km/h 59 % 0.00 in /  0 mm
09:23 38.6 °F /  3.7 °C 25.5 °F /  -3.6 °C 29.92 in /  1013.1 hPa NW 6.0 mph /  9.7 km/h 11.0 mph /  17.7 km/h 59 % 0.00 in /  0 mm
09:28 38.8 °F /  3.8 °C 24.4 °F /  -4.2 °C 29.92 in /  1013.1 hPa WNW 9.6 mph /  15.4 km/h 17.0 mph /  27.4 km/h 56 % 0.00 in /  0 mm
09:33 38.9 °F /  3.8 °C 24.1 °F /  -4.4 °C 29.92 in /  1013.1 hPa NW 6.9 mph /  11.1 km/h 12.7 mph /  20.4 km/h 55 % 0.00 in /  0 mm
09:38 39.1 °F /  3.9 °C 24.7 °F /  -4.1 °C 29.92 in /  1013.1 hPa NNW 7.7 mph /  12.4 km/h 12.0 mph /  19.3 km/h 56 % 0.00 in /  0 mm
09:43 39.3 °F /  4.1 °C 24.9 °F /  -3.9 °C 29.92 in /  1013.1 hPa WNW 10.2 mph /  16.4 km/h 15.0 mph /  24.1 km/h 56 % 0.00 in /  0 mm
09:48 39.4 °F /  4.1 °C 24.6 °F /  -4.1 °C 29.93 in /  1013.4 hPa NW 10.1 mph /  16.3 km/h 15.0 mph /  24.1 km/h 55 % 0.00 in /  0 mm
09:53 39.3 °F /  4.1 °C 23.6 °F /  -4.7 °C 29.93 in /  1013.4 hPa NNW 7.2 mph /  11.6 km/h 10.4 mph /  16.7 km/h 53 % 0.00 in /  0 mm
09:58 39.5 °F /  4.2 °C 24.7 °F /  -4.1 °C 29.93 in /  1013.4 hPa WNW 11.6 mph /  18.7 km/h 17.3 mph /  27.8 km/h 55 % 0.00 in /  0 mm
10:03 39.6 °F /  4.2 °C 24.7 °F /  -4.1 °C 29.93 in /  1013.4 hPa WNW 5.0 mph /  8 km/h 17.3 mph /  27.8 km/h 55 % 0.00 in /  0 mm
10:08 39.8 °F /  4.3 °C 25.8 °F /  -3.4 °C 29.93 in /  1013.4 hPa NNW 4.9 mph /  7.9 km/h 11.5 mph /  18.5 km/h 57 % 0.00 in /  0 mm
10:13 40.0 °F /  4.4 °C 25.1 °F /  -3.8 °C 29.93 in /  1013.4 hPa West 6.8 mph /  10.9 km/h 17.3 mph /  27.8 km/h 55 % 0.00 in /  0 mm
10:19 39.9 °F /  4.4 °C 25.9 °F /  -3.4 °C 29.94 in /  1013.8 hPa West 5.2 mph /  8.4 km/h 16.0 mph /  25.7 km/h 57 % 0.00 in /  0 mm
10:24 39.6 °F /  4.2 °C 24.7 °F /  -4.1 °C 29.94 in /  1013.8 hPa NW 6.7 mph /  10.8 km/h 17.3 mph /  27.8 km/h 55 % 0.00 in /  0 mm
10:29 39.5 °F /  4.2 °C 24.7 °F /  -4.1 °C 29.94 in /  1013.8 hPa North 5.3 mph /  8.5 km/h 11.5 mph /  18.5 km/h 55 % 0.00 in /  0 mm
10:34 39.5 °F /  4.2 °C 24.2 °F /  -4.3 °C 29.95 in /  1014.1 hPa WNW 6.1 mph /  9.8 km/h 12.7 mph /  20.4 km/h 54 % 0.00 in /  0 mm
10:39 39.6 °F /  4.2 °C 24.7 °F /  -4.1 °C 29.95 in /  1014.1 hPa WNW 6.9 mph /  11.1 km/h 10.0 mph /  16.1 km/h 55 % 0.00 in /  0 mm
10:44 40.1 °F /  4.5 °C 25.2 °F /  -3.8 °C 29.95 in /  1014.1 hPa WNW 9.1 mph /  14.6 km/h 13.8 mph /  22.2 km/h 55 % 0.00 in /  0 mm
10:49 40.4 °F /  4.7 °C 24.1 °F /  -4.4 °C 29.95 in /  1014.1 hPa West 6.2 mph /  10 km/h 16.0 mph /  25.7 km/h 52 % 0.00 in /  0 mm
10:54 40.7 °F /  4.8 °C 24.4 °F /  -4.2 °C 29.95 in /  1014.1 hPa SSW 5.4 mph /  8.7 km/h 15.0 mph /  24.1 km/h 52 % 0.00 in /  0 mm
10:59 41.1 °F /  5.1 °C 23.9 °F /  -4.5 °C 29.95 in /  1014.1 hPa WNW 6.6 mph /  10.6 km/h 13.0 mph /  20.9 km/h 50 % 0.00 in /  0 mm
11:04 41.3 °F /  5.2 °C 25.0 °F /  -3.9 °C 29.95 in /  1014.1 hPa West 2.0 mph /  3.2 km/h 6.9 mph /  11.1 km/h 52 % 0.00 in /  0 mm
11:09 41.8 °F /  5.4 °C 25.0 °F /  -3.9 °C 29.95 in /  1014.1 hPa NW 7.0 mph /  11.3 km/h 13.8 mph /  22.2 km/h 51 % 0.00 in /  0 mm
11:14 41.9 °F /  5.5 °C 24.6 °F /  -4.1 °C 29.96 in /  1014.4 hPa NNW 7.7 mph /  12.4 km/h 13.8 mph /  22.2 km/h 50 % 0.00 in /  0 mm
11:19 41.6 °F /  5.3 °C 24.8 °F /  -4 °C 29.96 in /  1014.4 hPa WNW 8.4 mph /  13.5 km/h 17.3 mph /  27.8 km/h 51 % 0.00 in /  0 mm
11:24 41.3 °F /  5.2 °C 25.0 °F /  -3.9 °C 29.96 in /  1014.4 hPa WNW 7.5 mph /  12.1 km/h 17.3 mph /  27.8 km/h 52 % 0.00 in /  0 mm
11:29 41.0 °F /  5 °C 23.8 °F /  -4.6 °C 29.96 in /  1014.4 hPa WNW 4.6 mph /  7.4 km/h 17.3 mph /  27.8 km/h 50 % 0.00 in /  0 mm
11:34 41.3 °F /  5.2 °C 25.9 °F /  -3.4 °C 29.96 in /  1014.4 hPa WNW 5.8 mph /  9.3 km/h 10.4 mph /  16.7 km/h 54 % 0.00 in /  0 mm
11:39 41.6 °F /  5.3 °C 24.3 °F /  -4.3 °C 29.96 in /  1014.4 hPa West 8.4 mph /  13.5 km/h 16.1 mph /  25.9 km/h 50 % 0.00 in /  0 mm
11:44 41.8 °F /  5.4 °C 25.0 °F /  -3.9 °C 29.96 in /  1014.4 hPa NW 7.7 mph /  12.4 km/h 11.5 mph /  18.5 km/h 51 % 0.00 in /  0 mm
11:49 41.7 °F /  5.4 °C 24.9 °F /  -3.9 °C 29.96 in /  1014.4 hPa WNW 6.9 mph /  11.1 km/h 13.8 mph /  22.2 km/h 51 % 0.00 in /  0 mm
11:54 41.5 °F /  5.3 °C 24.7 °F /  -4.1 °C 29.96 in /  1014.4 hPa NNW 5.8 mph /  9.3 km/h 9.2 mph /  14.8 km/h 51 % 0.00 in /  0 mm
11:59 41.0 °F /  5 °C 23.8 °F /  -4.6 °C 29.97 in /  1014.8 hPa WNW 5.3 mph /  8.5 km/h 13.0 mph /  20.9 km/h 50 % 0.00 in /  0 mm
12:04 40.4 °F /  4.7 °C 24.1 °F /  -4.4 °C 29.97 in /  1014.8 hPa WNW 7.7 mph /  12.4 km/h 15.0 mph /  24.1 km/h 52 % 0.00 in /  0 mm
12:09 40.0 °F /  4.4 °C 24.2 °F /  -4.3 °C 29.97 in /  1014.8 hPa WNW 7.8 mph /  12.6 km/h 13.0 mph /  20.9 km/h 53 % 0.00 in /  0 mm
12:15 40.0 °F /  4.4 °C 22.8 °F /  -5.1 °C 29.97 in /  1014.8 hPa NW 8.5 mph /  13.7 km/h 17.3 mph /  27.8 km/h 50 % 0.00 in /  0 mm
12:20 40.2 °F /  4.6 °C 23.5 °F /  -4.7 °C 29.97 in /  1014.8 hPa NNW 9.3 mph /  15 km/h 17.3 mph /  27.8 km/h 51 % 0.00 in /  0 mm
12:25 40.6 °F /  4.8 °C 23.4 °F /  -4.8 °C 29.97 in /  1014.8 hPa WNW 9.1 mph /  14.6 km/h 13.8 mph /  22.2 km/h 50 % 0.00 in /  0 mm
12:30 40.9 °F /  4.9 °C 24.6 °F /  -4.1 °C 29.97 in /  1014.8 hPa SSW 6.1 mph /  9.8 km/h 6.1 mph /  9.8 km/h 52 % 0.00 in /  0 mm
12:35 41.1 °F /  5.1 °C 23.4 °F /  -4.8 °C 29.97 in /  1014.8 hPa WNW 8.2 mph /  13.2 km/h 13.8 mph /  22.2 km/h 49 % 0.00 in /  0 mm
12:40 41.4 °F /  5.2 °C 23.6 °F /  -4.7 °C 29.97 in /  1014.8 hPa West 4.9 mph /  7.9 km/h 10.4 mph /  16.7 km/h 49 % 0.00 in /  0 mm
12:45 41.7 °F /  5.4 °C 22.9 °F /  -5.1 °C 29.97 in /  1014.8 hPa West 8.6 mph /  13.8 km/h 16.1 mph /  25.9 km/h 47 % 0.00 in /  0 mm
12:50 41.9 °F /  5.5 °C 24.1 °F /  -4.4 °C 29.97 in /  1014.8 hPa WNW 6.7 mph /  10.8 km/h 13.0 mph /  20.9 km/h 49 % 0.00 in /  0 mm
12:55 42.0 °F /  5.6 °C 23.7 °F /  -4.6 °C 29.97 in /  1014.8 hPa West 4.2 mph /  6.8 km/h 11.0 mph /  17.7 km/h 48 % 0.00 in /  0 mm
13:00 42.3 °F /  5.7 °C 24.0 °F /  -4.4 °C 29.97 in /  1014.8 hPa NW 8.4 mph /  13.5 km/h 11.5 mph /  18.5 km/h 48 % 0.00 in /  0 mm
13:05 42.4 °F /  5.8 °C 23.6 °F /  -4.7 °C 29.97 in /  1014.8 hPa NW 6.3 mph /  10.1 km/h 12.7 mph /  20.4 km/h 47 % 0.00 in /  0 mm
13:10 42.4 °F /  5.8 °C 23.1 °F /  -4.9 °C 29.97 in /  1014.8 hPa NW 5.7 mph /  9.2 km/h 16.1 mph /  25.9 km/h 46 % 0.00 in /  0 mm
13:15 42.4 °F /  5.8 °C 23.1 °F /  -4.9 °C 29.97 in /  1014.8 hPa WNW 5.3 mph /  8.5 km/h 15.0 mph /  24.1 km/h 46 % 0.00 in /  0 mm
13:20 42.4 °F /  5.8 °C 23.6 °F /  -4.7 °C 29.97 in /  1014.8 hPa West 7.8 mph /  12.6 km/h 11.5 mph /  18.5 km/h 47 % 0.00 in /  0 mm
13:25 42.5 °F /  5.8 °C 22.6 °F /  -5.2 °C 29.97 in /  1014.8 hPa NW 3.0 mph /  4.8 km/h 9.2 mph /  14.8 km/h 45 % 0.00 in /  0 mm
13:30 42.6 °F /  5.9 °C 23.2 °F /  -4.9 °C 29.97 in /  1014.8 hPa West 3.4 mph /  5.5 km/h 6.9 mph /  11.1 km/h 46 % 0.00 in /  0 mm
13:35 42.8 °F /  6 °C 23.9 °F /  -4.5 °C 29.97 in /  1014.8 hPa NW 6.0 mph /  9.7 km/h 11.5 mph /  18.5 km/h 47 % 0.00 in /  0 mm
13:40 43.1 °F /  6.2 °C 23.2 °F /  -4.9 °C 29.97 in /  1014.8 hPa West 6.9 mph /  11.1 km/h 11.0 mph /  17.7 km/h 45 % 0.00 in /  0 mm
13:45 43.2 °F /  6.2 °C 23.3 °F /  -4.8 °C 29.98 in /  1015.1 hPa NW 8.6 mph /  13.8 km/h 12.7 mph /  20.4 km/h 45 % 0.00 in /  0 mm
13:50 43.2 °F /  6.2 °C 22.7 °F /  -5.2 °C 29.98 in /  1015.1 hPa WNW 5.6 mph /  9 km/h 11.5 mph /  18.5 km/h 44 % 0.00 in /  0 mm
13:55 43.2 °F /  6.2 °C 23.3 °F /  -4.8 °C 29.98 in /  1015.1 hPa NW 6.4 mph /  10.3 km/h 13.0 mph /  20.9 km/h 45 % 0.00 in /  0 mm
14:01 43.1 °F /  6.2 °C 23.2 °F /  -4.9 °C 29.98 in /  1015.1 hPa NW 7.0 mph /  11.3 km/h 10.4 mph /  16.7 km/h 45 % 0.00 in /  0 mm
14:06 43.2 °F /  6.2 °C 23.3 °F /  -4.8 °C 29.98 in /  1015.1 hPa NW 10.0 mph /  16.1 km/h 13.8 mph /  22.2 km/h 45 % 0.00 in /  0 mm
14:11 43.1 °F /  6.2 °C 23.2 °F /  -4.9 °C 29.98 in /  1015.1 hPa WNW 7.8 mph /  12.6 km/h 13.8 mph /  22.2 km/h 45 % 0.00 in /  0 mm
14:16 43.0 °F /  6.1 °C 22.5 °F /  -5.3 °C 29.98 in /  1015.1 hPa West 5.5 mph /  8.9 km/h 10.4 mph /  16.7 km/h 44 % 0.00 in /  0 mm
14:21 43.0 °F /  6.1 °C 22.5 °F /  -5.3 °C 29.98 in /  1015.1 hPa West 5.8 mph /  9.3 km/h 10.4 mph /  16.7 km/h 44 % 0.00 in /  0 mm
14:26 43.1 °F /  6.2 °C 23.7 °F /  -4.6 °C 29.98 in /  1015.1 hPa NW 6.4 mph /  10.3 km/h 10.4 mph /  16.7 km/h 46 % 0.00 in /  0 mm
14:31 43.0 °F /  6.1 °C 24.6 °F /  -4.1 °C 29.98 in /  1015.1 hPa WNW 8.2 mph /  13.2 km/h 11.0 mph /  17.7 km/h 48 % 0.00 in /  0 mm
14:36 42.8 °F /  6 °C 23.9 °F /  -4.5 °C 29.98 in /  1015.1 hPa NW 8.1 mph /  13 km/h 13.8 mph /  22.2 km/h 47 % 0.00 in /  0 mm
14:42 42.7 °F /  5.9 °C 23.8 °F /  -4.6 °C 29.98 in /  1015.1 hPa WNW 3.7 mph /  6 km/h 9.2 mph /  14.8 km/h 47 % 0.00 in /  0 mm
14:47 42.5 °F /  5.8 °C 24.2 °F /  -4.3 °C 29.99 in /  1015.5 hPa NW 6.2 mph /  10 km/h 10.4 mph /  16.7 km/h 48 % 0.00 in /  0 mm
14:52 42.3 °F /  5.7 °C 24.0 °F /  -4.4 °C 29.99 in /  1015.5 hPa NW 5.3 mph /  8.5 km/h 11.5 mph /  18.5 km/h 48 % 0.00 in /  0 mm
14:57 42.0 °F /  5.6 °C 24.7 °F /  -4.1 °C 30.00 in /  1015.8 hPa NW 6.4 mph /  10.3 km/h 12.7 mph /  20.4 km/h 50 % 0.00 in /  0 mm
15:02 41.7 °F /  5.4 °C 24.4 °F /  -4.2 °C 30.00 in /  1015.8 hPa WNW 2.6 mph /  4.2 km/h 9.2 mph /  14.8 km/h 50 % 0.00 in /  0 mm
15:07 41.5 °F /  5.3 °C 23.2 °F /  -4.9 °C 30.00 in /  1015.8 hPa WNW 8.6 mph /  13.8 km/h 12.7 mph /  20.4 km/h 48 % 0.00 in /  0 mm
15:12 41.3 °F /  5.2 °C 24.0 °F /  -4.4 °C 30.00 in /  1015.8 hPa WNW 6.2 mph /  10 km/h 11.5 mph /  18.5 km/h 50 % 0.00 in /  0 mm
15:17 41.2 °F /  5.1 °C 23.0 °F /  -5 °C 30.00 in /  1015.8 hPa WNW 8.7 mph /  14 km/h 11.5 mph /  18.5 km/h 48 % 0.00 in /  0 mm
15:22 41.1 °F /  5.1 °C 23.9 °F /  -4.5 °C 30.00 in /  1015.8 hPa NW 4.4 mph /  7.1 km/h 13.8 mph /  22.2 km/h 50 % 0.00 in /  0 mm
15:27 41.0 °F /  5 °C 23.3 °F /  -4.8 °C 30.00 in /  1015.8 hPa WNW 7.3 mph /  11.7 km/h 17.0 mph /  27.4 km/h 49 % 0.00 in /  0 mm
15:32 40.8 °F /  4.9 °C 22.6 °F /  -5.2 °C 30.00 in /  1015.8 hPa NW 7.4 mph /  11.9 km/h 12.7 mph /  20.4 km/h 48 % 0.00 in /  0 mm
15:37 40.7 °F /  4.8 °C 23.0 °F /  -5 °C 30.01 in /  1016.1 hPa NW 8.3 mph /  13.4 km/h 15.0 mph /  24.1 km/h 49 % 0.00 in /  0 mm
15:42 40.7 °F /  4.8 °C 24.4 °F /  -4.2 °C 30.01 in /  1016.1 hPa WNW 4.7 mph /  7.6 km/h 12.0 mph /  19.3 km/h 52 % 0.00 in /  0 mm
15:47 40.6 °F /  4.8 °C 23.4 °F /  -4.8 °C 30.01 in /  1016.1 hPa West 5.4 mph /  8.7 km/h 9.2 mph /  14.8 km/h 50 % 0.00 in /  0 mm
15:52 40.6 °F /  4.8 °C 24.8 °F /  -4 °C 30.01 in /  1016.1 hPa NNW 2.7 mph /  4.3 km/h 8.1 mph /  13 km/h 53 % 0.00 in /  0 mm
15:57 40.5 °F /  4.7 °C 24.7 °F /  -4.1 °C 30.01 in /  1016.1 hPa WNW 2.8 mph /  4.5 km/h 10.4 mph /  16.7 km/h 53 % 0.00 in /  0 mm
16:02 40.4 °F /  4.7 °C 24.1 °F /  -4.4 °C 30.02 in /  1016.5 hPa NNW 6.6 mph /  10.6 km/h 12.0 mph /  19.3 km/h 52 % 0.00 in /  0 mm
16:07 40.2 °F /  4.6 °C 23.5 °F /  -4.7 °C 30.02 in /  1016.5 hPa NW 7.5 mph /  12.1 km/h 13.8 mph /  22.2 km/h 51 % 0.00 in /  0 mm
16:12 40.2 °F /  4.6 °C 23.5 °F /  -4.7 °C 30.03 in /  1016.8 hPa NW 5.7 mph /  9.2 km/h 11.5 mph /  18.5 km/h 51 % 0.00 in /  0 mm
16:18 40.1 °F /  4.5 °C 23.4 °F /  -4.8 °C 30.03 in /  1016.8 hPa NNW 5.1 mph /  8.2 km/h 11.5 mph /  18.5 km/h 51 % 0.00 in /  0 mm
16:23 40.1 °F /  4.5 °C 23.9 °F /  -4.5 °C 30.03 in /  1016.8 hPa NNW 5.5 mph /  8.9 km/h 8.1 mph /  13 km/h 52 % 0.00 in /  0 mm
16:28 40.0 °F /  4.4 °C 23.8 °F /  -4.6 °C 30.03 in /  1016.8 hPa WNW 4.9 mph /  7.9 km/h 11.5 mph /  18.5 km/h 52 % 0.00 in /  0 mm
16:33 39.9 °F /  4.4 °C 23.7 °F /  -4.6 °C 30.03 in /  1016.8 hPa WNW 5.9 mph /  9.5 km/h 14.0 mph /  22.5 km/h 52 % 0.00 in /  0 mm
16:38 39.9 °F /  4.4 °C 23.2 °F /  -4.9 °C 30.04 in /  1017.2 hPa NNW 5.6 mph /  9 km/h 9.0 mph /  14.5 km/h 51 % 0.00 in /  0 mm
16:43 39.8 °F /  4.3 °C 24.0 °F /  -4.4 °C 30.04 in /  1017.2 hPa WNW 5.5 mph /  8.9 km/h 11.5 mph /  18.5 km/h 53 % 0.00 in /  0 mm
16:48 39.7 °F /  4.3 °C 24.8 °F /  -4 °C 30.04 in /  1017.2 hPa NW 4.6 mph /  7.4 km/h 6.9 mph /  11.1 km/h 55 % 0.00 in /  0 mm
16:53 39.6 °F /  4.2 °C 24.7 °F /  -4.1 °C 30.05 in /  1017.5 hPa NNW 7.7 mph /  12.4 km/h 11.5 mph /  18.5 km/h 55 % 0.00 in /  0 mm
16:58 39.5 °F /  4.2 °C 24.7 °F /  -4.1 °C 30.05 in /  1017.5 hPa NNW 4.5 mph /  7.2 km/h 9.0 mph /  14.5 km/h 55 % 0.00 in /  0 mm
17:03 39.3 °F /  4.1 °C 24.1 °F /  -4.4 °C 30.05 in /  1017.5 hPa NW 6.0 mph /  9.7 km/h 12.0 mph /  19.3 km/h 54 % 0.00 in /  0 mm
17:08 39.2 °F /  4 °C 23.9 °F /  -4.5 °C 30.06 in /  1017.8 hPa NW 5.0 mph /  8 km/h 8.0 mph /  12.9 km/h 54 % 0.00 in /  0 mm
17:13 39.1 °F /  3.9 °C 23.8 °F /  -4.6 °C 30.06 in /  1017.8 hPa NW 6.0 mph /  9.7 km/h 13.0 mph /  20.9 km/h 54 % 0.00 in /  0 mm
17:18 39.1 °F /  3.9 °C 23.4 °F /  -4.8 °C 30.06 in /  1017.8 hPa NW 5.0 mph /  8 km/h 12.0 mph /  19.3 km/h 53 % 0.00 in /  0 mm
17:23 38.9 °F /  3.8 °C 24.1 °F /  -4.4 °C 30.06 in /  1017.8 hPa NW 7.0 mph /  11.3 km/h 12.0 mph /  19.3 km/h 55 % 0.00 in /  0 mm
17:28 38.9 °F /  3.8 °C 24.5 °F /  -4.2 °C 30.07 in /  1018.2 hPa NW 2.0 mph /  3.2 km/h 12.0 mph /  19.3 km/h 56 % 0.00 in /  0 mm
17:33 38.8 °F /  3.8 °C 24.0 °F /  -4.4 °C 30.07 in /  1018.2 hPa NW 3.3 mph /  5.3 km/h 4.6 mph /  7.4 km/h 55 % 0.00 in /  0 mm
17:38 38.8 °F /  3.8 °C 24.0 °F /  -4.4 °C 30.07 in /  1018.2 hPa NW 7.0 mph /  11.3 km/h 16.0 mph /  25.7 km/h 55 % 0.00 in /  0 mm
17:43 38.7 °F /  3.7 °C 23.9 °F /  -4.5 °C 30.07 in /  1018.2 hPa NW 7.0 mph /  11.3 km/h 12.0 mph /  19.3 km/h 55 % 0.00 in /  0 mm
17:48 38.6 °F /  3.7 °C 23.4 °F /  -4.8 °C 30.08 in /  1018.5 hPa NNW 5.0 mph /  8 km/h 12.0 mph /  19.3 km/h 54 % 0.00 in /  0 mm
17:53 38.5 °F /  3.6 °C 23.7 °F /  -4.6 °C 30.08 in /  1018.5 hPa NW 6.0 mph /  9.7 km/h 9.0 mph /  14.5 km/h 55 % 0.00 in /  0 mm
17:58 38.3 °F /  3.5 °C 23.5 °F /  -4.7 °C 30.08 in /  1018.5 hPa WNW 6.0 mph /  9.7 km/h 11.5 mph /  18.5 km/h 55 % 0.00 in /  0 mm
18:03 38.2 °F /  3.4 °C 23.9 °F /  -4.5 °C 30.09 in /  1018.8 hPa WNW 4.1 mph /  6.6 km/h 9.2 mph /  14.8 km/h 56 % 0.00 in /  0 mm
18:08 38.2 °F /  3.4 °C 23.4 °F /  -4.8 °C 30.09 in /  1018.8 hPa NW 6.9 mph /  11.1 km/h 13.8 mph /  22.2 km/h 55 % 0.00 in /  0 mm
18:13 38.1 °F /  3.4 °C 23.8 °F /  -4.6 °C 30.09 in /  1018.8 hPa NW 4.1 mph /  6.6 km/h 9.2 mph /  14.8 km/h 56 % 0.00 in /  0 mm
18:18 38.1 °F /  3.4 °C 22.9 °F /  -5.1 °C 30.09 in /  1018.8 hPa WNW 5.2 mph /  8.4 km/h 11.5 mph /  18.5 km/h 54 % 0.00 in /  0 mm
18:23 38.1 °F /  3.4 °C 23.3 °F /  -4.8 °C 30.10 in /  1019.2 hPa NNW 3.1 mph /  5 km/h 6.0 mph /  9.7 km/h 55 % 0.00 in /  0 mm
18:28 38.0 °F /  3.3 °C 24.1 °F /  -4.4 °C 30.11 in /  1019.5 hPa NNW 4.2 mph /  6.8 km/h 8.1 mph /  13 km/h 57 % 0.00 in /  0 mm
18:33 38.0 °F /  3.3 °C 23.7 °F /  -4.6 °C 30.11 in /  1019.5 hPa NNW 5.2 mph /  8.4 km/h 11.5 mph /  18.5 km/h 56 % 0.00 in /  0 mm
18:38 37.9 °F /  3.3 °C 23.6 °F /  -4.7 °C 30.12 in /  1019.9 hPa NNW 4.5 mph /  7.2 km/h 10.4 mph /  16.7 km/h 56 % 0.00 in /  0 mm
18:43 37.9 °F /  3.3 °C 24.0 °F /  -4.4 °C 30.12 in /  1019.9 hPa WNW 2.8 mph /  4.5 km/h 9.2 mph /  14.8 km/h 57 % 0.00 in /  0 mm
18:48 37.8 °F /  3.2 °C 23.5 °F /  -4.7 °C 30.12 in /  1019.9 hPa North 3.3 mph /  5.3 km/h 11.5 mph /  18.5 km/h 56 % 0.00 in /  0 mm
18:53 37.8 °F /  3.2 °C 23.5 °F /  -4.7 °C 30.13 in /  1020.2 hPa NNW 6.1 mph /  9.8 km/h 9.0 mph /  14.5 km/h 56 % 0.00 in /  0 mm
18:58 37.7 °F /  3.2 °C 23.4 °F /  -4.8 °C 30.13 in /  1020.2 hPa NW 5.3 mph /  8.5 km/h 8.1 mph /  13 km/h 56 % 0.00 in /  0 mm
19:03 37.6 °F /  3.1 °C 22.9 °F /  -5.1 °C 30.13 in /  1020.2 hPa NW 4.6 mph /  7.4 km/h 10.0 mph /  16.1 km/h 55 % 0.00 in /  0 mm
19:09 37.5 °F /  3.1 °C 22.8 °F /  -5.1 °C 30.13 in /  1020.2 hPa NW 2.6 mph /  4.2 km/h 9.2 mph /  14.8 km/h 55 % 0.00 in /  0 mm
19:14 37.5 °F /  3.1 °C 23.2 °F /  -4.9 °C 30.14 in /  1020.5 hPa NW 5.7 mph /  9.2 km/h 11.5 mph /  18.5 km/h 56 % 0.00 in /  0 mm
19:19 37.4 °F /  3 °C 22.7 °F /  -5.2 °C 30.14 in /  1020.5 hPa WNW 6.5 mph /  10.5 km/h 16.1 mph /  25.9 km/h 55 % 0.00 in /  0 mm
19:24 37.5 °F /  3.1 °C 23.2 °F /  -4.9 °C 30.14 in /  1020.5 hPa WNW 5.1 mph /  8.2 km/h 11.5 mph /  18.5 km/h 56 % 0.00 in /  0 mm
19:29 37.4 °F /  3 °C 22.7 °F /  -5.2 °C 30.14 in /  1020.5 hPa NW 5.4 mph /  8.7 km/h 9.2 mph /  14.8 km/h 55 % 0.00 in /  0 mm
19:34 37.4 °F /  3 °C 23.1 °F /  -4.9 °C 30.14 in /  1020.5 hPa West 3.0 mph /  4.8 km/h 5.8 mph /  9.3 km/h 56 % 0.00 in /  0 mm
19:39 37.4 °F /  3 °C 23.1 °F /  -4.9 °C 30.15 in /  1020.9 hPa NNW 7.2 mph /  11.6 km/h 7.2 mph /  11.6 km/h 56 % 0.00 in /  0 mm
19:44 37.4 °F /  3 °C 23.5 °F /  -4.7 °C 30.15 in /  1020.9 hPa NW 4.3 mph /  6.9 km/h 7.0 mph /  11.3 km/h 57 % 0.00 in /  0 mm
19:49 37.3 °F /  2.9 °C 23.4 °F /  -4.8 °C 30.16 in /  1021.2 hPa WNW 6.7 mph /  10.8 km/h 9.2 mph /  14.8 km/h 57 % 0.00 in /  0 mm
19:54 37.3 °F /  2.9 °C 23.0 °F /  -5 °C 30.16 in /  1021.2 hPa WNW 3.6 mph /  5.8 km/h 12.7 mph /  20.4 km/h 56 % 0.00 in /  0 mm
19:59 37.3 °F /  2.9 °C 23.0 °F /  -5 °C 30.16 in /  1021.2 hPa NW 2.5 mph /  4 km/h 9.2 mph /  14.8 km/h 56 % 0.00 in /  0 mm
20:04 37.2 °F /  2.9 °C 22.9 °F /  -5.1 °C 30.16 in /  1021.2 hPa WNW 2.9 mph /  4.7 km/h 4.6 mph /  7.4 km/h 56 % 0.00 in /  0 mm
20:09 37.2 °F /  2.9 °C 23.4 °F /  -4.8 °C 30.16 in /  1021.2 hPa West 3.5 mph /  5.6 km/h 6.9 mph /  11.1 km/h 57 % 0.00 in /  0 mm
20:14 37.1 °F /  2.8 °C 23.3 °F /  -4.8 °C 30.17 in /  1021.6 hPa NW 4.8 mph /  7.7 km/h 6.9 mph /  11.1 km/h 57 % 0.00 in /  0 mm
20:19 37.0 °F /  2.8 °C 23.2 °F /  -4.9 °C 30.17 in /  1021.6 hPa West 3.7 mph /  6 km/h 8.0 mph /  12.9 km/h 57 % 0.00 in /  0 mm
20:24 37.0 °F /  2.8 °C 23.2 °F /  -4.9 °C 30.17 in /  1021.6 hPa West 4.6 mph /  7.4 km/h 8.1 mph /  13 km/h 57 % 0.00 in /  0 mm
20:29 36.9 °F /  2.7 °C 22.7 °F /  -5.2 °C 30.17 in /  1021.6 hPa NW 4.6 mph /  7.4 km/h 6.9 mph /  11.1 km/h 56 % 0.00 in /  0 mm
20:34 36.8 °F /  2.7 °C 22.6 °F /  -5.2 °C 30.18 in /  1021.9 hPa NW 4.2 mph /  6.8 km/h 9.2 mph /  14.8 km/h 56 % 0.00 in /  0 mm
20:39 36.8 °F /  2.7 °C 23.0 °F /  -5 °C 30.18 in /  1021.9 hPa West 3.8 mph /  6.1 km/h 7.0 mph /  11.3 km/h 57 % 0.00 in /  0 mm
20:44 36.8 °F /  2.7 °C 23.0 °F /  -5 °C 30.18 in /  1021.9 hPa WNW 2.9 mph /  4.7 km/h 6.0 mph /  9.7 km/h 57 % 0.00 in /  0 mm
20:49 36.7 °F /  2.6 °C 22.9 °F /  -5.1 °C 30.18 in /  1021.9 hPa West 3.1 mph /  5 km/h 6.0 mph /  9.7 km/h 57 % 0.00 in /  0 mm
20:54 36.6 °F /  2.6 °C 22.8 °F /  -5.1 °C 30.19 in /  1022.2 hPa West 2.4 mph /  3.9 km/h 4.6 mph /  7.4 km/h 57 % 0.00 in /  0 mm
20:59 36.5 °F /  2.5 °C 22.7 °F /  -5.2 °C 30.19 in /  1022.2 hPa WNW 1.7 mph /  2.7 km/h 4.0 mph /  6.4 km/h 57 % 0.00 in /  0 mm
21:05 36.4 °F /  2.4 °C 23.0 °F /  -5 °C 30.20 in /  1022.6 hPa West 2.7 mph /  4.3 km/h 5.8 mph /  9.3 km/h 58 % 0.00 in /  0 mm
21:10 36.4 °F /  2.4 °C 22.6 °F /  -5.2 °C 30.19 in /  1022.2 hPa West 0.6 mph /  1 km/h 3.5 mph /  5.6 km/h 57 % 0.00 in /  0 mm
21:15 36.3 °F /  2.4 °C 22.5 °F /  -5.3 °C 30.19 in /  1022.2 hPa WNW 0.8 mph /  1.3 km/h 3.5 mph /  5.6 km/h 57 % 0.00 in /  0 mm
21:20 36.2 °F /  2.3 °C 22.8 °F /  -5.1 °C 30.20 in /  1022.6 hPa WNW 1.3 mph /  2.1 km/h 8.1 mph /  13 km/h 58 % 0.00 in /  0 mm
21:25 36.1 °F /  2.3 °C 22.7 °F /  -5.2 °C 30.20 in /  1022.6 hPa West 1.3 mph /  2.1 km/h 3.5 mph /  5.6 km/h 58 % 0.00 in /  0 mm
21:30 36.0 °F /  2.2 °C 22.6 °F /  -5.2 °C 30.20 in /  1022.6 hPa WNW 1.9 mph /  3.1 km/h 3.5 mph /  5.6 km/h 58 % 0.00 in /  0 mm
21:35 35.9 °F /  2.2 °C 22.1 °F /  -5.5 °C 30.20 in /  1022.6 hPa WNW 3.1 mph /  5 km/h 8.1 mph /  13 km/h 57 % 0.00 in /  0 mm
21:40 35.9 °F /  2.2 °C 21.7 °F /  -5.7 °C 30.20 in /  1022.6 hPa NW 5.6 mph /  9 km/h 10.4 mph /  16.7 km/h 56 % 0.00 in /  0 mm
21:45 35.8 °F /  2.1 °C 21.6 °F /  -5.8 °C 30.20 in /  1022.6 hPa NW 3.6 mph /  5.8 km/h 7.0 mph /  11.3 km/h 56 % 0.00 in /  0 mm
21:50 35.8 °F /  2.1 °C 21.6 °F /  -5.8 °C 30.20 in /  1022.6 hPa West 3.6 mph /  5.8 km/h 6.0 mph /  9.7 km/h 56 % 0.00 in /  0 mm
21:55 35.8 °F /  2.1 °C 21.6 °F /  -5.8 °C 30.21 in /  1022.9 hPa WNW 1.7 mph /  2.7 km/h 3.5 mph /  5.6 km/h 56 % 0.00 in /  0 mm
22:00 35.8 °F /  2.1 °C 21.6 °F /  -5.8 °C 30.21 in /  1022.9 hPa West 2.6 mph /  4.2 km/h 8.1 mph /  13 km/h 56 % 0.00 in /  0 mm
22:05 35.8 °F /  2.1 °C 22.0 °F /  -5.6 °C 30.20 in /  1022.6 hPa West 2.5 mph /  4 km/h 6.9 mph /  11.1 km/h 57 % 0.00 in /  0 mm
22:10 35.8 °F /  2.1 °C 22.0 °F /  -5.6 °C 30.20 in /  1022.6 hPa SW 0.4 mph /  0.6 km/h 1.2 mph /  1.9 km/h 57 % 0.00 in /  0 mm
22:15 35.8 °F /  2.1 °C 22.0 °F /  -5.6 °C 30.21 in /  1022.9 hPa NW 1.4 mph /  2.3 km/h 3.5 mph /  5.6 km/h 57 % 0.00 in /  0 mm
22:20 35.7 °F /  2.1 °C 22.4 °F /  -5.3 °C 30.21 in /  1022.9 hPa WSW 1.3 mph /  2.1 km/h 4.6 mph /  7.4 km/h 58 % 0.00 in /  0 mm
22:25 35.7 °F /  2.1 °C 22.4 °F /  -5.3 °C 30.21 in /  1022.9 hPa WSW 1.3 mph /  2.1 km/h 3.0 mph /  4.8 km/h 58 % 0.00 in /  0 mm
22:30 35.6 °F /  2 °C 22.7 °F /  -5.2 °C 30.21 in /  1022.9 hPa SW 3.4 mph /  5.5 km/h 6.0 mph /  9.7 km/h 59 % 0.00 in /  0 mm
22:35 35.5 °F /  1.9 °C 22.6 °F /  -5.2 °C 30.21 in /  1022.9 hPa West 1.7 mph /  2.7 km/h 4.0 mph /  6.4 km/h 59 % 0.00 in /  0 mm
22:40 35.4 °F /  1.9 °C 22.5 °F /  -5.3 °C 30.21 in /  1022.9 hPa West 1.7 mph /  2.7 km/h 3.5 mph /  5.6 km/h 59 % 0.00 in /  0 mm
22:45 35.3 °F /  1.8 °C 22.4 °F /  -5.3 °C 30.21 in /  1022.9 hPa West 2.9 mph /  4.7 km/h 5.0 mph /  8 km/h 59 % 0.00 in /  0 mm
22:50 35.2 °F /  1.8 °C 22.3 °F /  -5.4 °C 30.21 in /  1022.9 hPa WSW 1.8 mph /  2.9 km/h 3.5 mph /  5.6 km/h 59 % 0.00 in /  0 mm
22:55 35.2 °F /  1.8 °C 22.3 °F /  -5.4 °C 30.21 in /  1022.9 hPa West 0.5 mph /  0.8 km/h 2.0 mph /  3.2 km/h 59 % 0.00 in /  0 mm
23:00 35.2 °F /  1.8 °C 22.3 °F /  -5.4 °C 30.22 in /  1023.2 hPa West 0.9 mph /  1.4 km/h 2.3 mph /  3.7 km/h 59 % 0.00 in /  0 mm
23:05 35.1 °F /  1.7 °C 22.6 °F /  -5.2 °C 30.22 in /  1023.2 hPa West 1.7 mph /  2.7 km/h 3.5 mph /  5.6 km/h 60 % 0.00 in /  0 mm
23:11 35.1 °F /  1.7 °C 22.6 °F /  -5.2 °C 30.22 in /  1023.2 hPa South 1.1 mph /  1.8 km/h 2.3 mph /  3.7 km/h 60 % 0.00 in /  0 mm
23:16 35.0 °F /  1.7 °C 22.9 °F /  -5.1 °C 30.22 in /  1023.2 hPa South 1.5 mph /  2.4 km/h 2.3 mph /  3.7 km/h 61 % 0.00 in /  0 mm
23:21 34.8 °F /  1.6 °C 22.7 °F /  -5.2 °C 30.23 in /  1023.6 hPa WSW 1.8 mph /  2.9 km/h 3.5 mph /  5.6 km/h 61 % 0.00 in /  0 mm
23:26 34.7 °F /  1.5 °C 22.6 °F /  -5.2 °C 30.22 in /  1023.2 hPa Calm   1.2 mph /  1.9 km/h 61 % 0.00 in /  0 mm
23:31 34.5 °F /  1.4 °C 22.4 °F /  -5.3 °C 30.22 in /  1023.2 hPa WSW 0.3 mph /  0.5 km/h 1.0 mph /  1.6 km/h 61 % 0.00 in /  0 mm
23:36 34.3 °F /  1.3 °C 22.2 °F /  -5.4 °C 30.22 in /  1023.2 hPa WSW 0.9 mph /  1.4 km/h 2.3 mph /  3.7 km/h 61 % 0.00 in /  0 mm
23:41 34.1 °F /  1.2 °C 22.8 °F /  -5.1 °C 30.23 in /  1023.6 hPa Calm   1.2 mph /  1.9 km/h 63 % 0.00 in /  0 mm
23:46 33.9 °F /  1.1 °C 22.6 °F /  -5.2 °C 30.24 in /  1023.9 hPa SW 1.4 mph /  2.3 km/h 2.3 mph /  3.7 km/h 63 % 0.00 in /  0 mm
23:51 33.6 °F /  0.9 °C 22.3 °F /  -5.4 °C 30.24 in /  1023.9 hPa Calm   2.3 mph /  3.7 km/h 63 % 0.00 in /  0 mm
23:56 33.4 °F /  0.8 °C 22.1 °F /  -5.5 °C 30.24 in /  1023.9 hPa Calm   1.2 mph /  1.9 km/h 63 % 0.00 in /  0 mm
Crab Meadow Weather
Compliments of Weather Underground - 3 mb

Script developed by  Jim McMurry - jmcmurry@mwt.net Adapted for the template by  Wim van der Kuil - Leuven-Template.eu

Weather Terms: Gustnado - A gust front tornado. A small, weak, short-lived tornado that occurs along a gust front - the leading edge of a thunderstorm, caused by rain-cooled air flowing out from the storm's downdraft. A gustnado is often visible as a debris cloud or dust whirl.